Time;durP1;ratioP1;P1;durP2;ratioP2;P2;SDS_P1;SDS_P2;PMS_P1;PMS_P2;Temp;Humidity;BMP_temperature;BMP_pressure;BME280_temperature;BME280_humidity;BME280_pressure;Samples;Min_cycle;Max_cycle;Signal;HPM_P1;HPM_P2
2024/04/19 00:00:22;;;;;;;4.60;4.07;;;;;;;2.52;100.00;97629.59;6718171;26;20232;-57
2024/04/19 00:03:25;;;;;;;7.13;4.40;;;;;;;2.45;100.00;97633.16;6707350;26;20338;-57
2024/04/19 00:06:28;;;;;;;5.70;5.00;;;;;;;2.39;100.00;97634.75;6705255;26;20353;-57
2024/04/19 00:09:31;;;;;;;4.43;4.03;;;;;;;2.24;100.00;97639.28;6723604;26;20233;-55
2024/04/19 00:12:33;;;;;;;6.00;4.10;;;;;;;2.22;100.00;97647.38;6724156;26;20283;-56
2024/04/19 00:15:38;;;;;;;4.97;4.47;;;;;;;2.10;100.00;97640.16;6714526;26;20336;-56
2024/04/19 00:18:41;;;;;;;5.70;5.07;;;;;;;2.04;100.00;97639.91;6706451;26;20236;-58
2024/04/19 00:21:44;;;;;;;6.87;5.70;;;;;;;2.01;100.00;97640.28;6704267;26;20237;-56
2024/04/19 00:24:46;;;;;;;8.17;6.63;;;;;;;2.12;100.00;97641.63;6710564;26;20313;-57
2024/04/19 00:27:49;;;;;;;6.50;5.67;;;;;;;2.00;100.00;97635.22;6708914;26;20296;-56
2024/04/19 00:30:57;;;;;;;6.50;5.77;;;;;;;1.98;100.00;97638.06;6708055;26;20240;-54
2024/04/19 00:34:00;;;;;;;7.37;6.57;;;;;;;2.04;100.00;97639.13;6706577;26;20243;-57
2024/04/19 00:37:02;;;;;;;7.70;6.90;;;;;;;2.10;100.00;97642.78;6704211;26;20281;-56
2024/04/19 00:40:06;;;;;;;7.53;6.73;;;;;;;2.22;100.00;97631.59;6707997;26;20318;-52
2024/04/19 00:43:08;;;;;;;6.97;6.27;;;;;;;2.28;100.00;97633.47;6703779;26;20289;-56
2024/04/19 00:46:12;;;;;;;7.57;6.87;;;;;;;2.46;100.00;97634.78;6724141;26;20232;-57
2024/04/19 00:49:14;;;;;;;6.97;6.00;;;;;;;2.52;100.00;97644.56;6717252;26;20250;-56
2024/04/19 00:52:17;;;;;;;6.77;5.70;;;;;;;2.51;100.00;97641.13;6711203;26;20240;-57
2024/04/19 00:55:20;;;;;;;6.90;6.20;;;;;;;2.52;100.00;97642.75;6703516;26;20241;-55
2024/04/19 00:58:25;;;;;;;7.17;5.80;;;;;;;2.53;100.00;97641.75;6709289;26;21295;-54
2024/04/19 01:01:29;;;;;;;8.10;7.30;;;;;;;2.58;100.00;97641.97;6703392;26;20233;-56
2024/04/19 01:04:32;;;;;;;8.70;5.90;;;;;;;2.86;100.00;97641.16;6704922;26;20243;-56
2024/04/19 01:07:34;;;;;;;6.13;5.43;;;;;;;2.79;100.00;97630.56;6708419;26;20232;-57
2024/04/19 01:10:39;;;;;;;6.83;6.23;;;;;;;2.73;100.00;97643.69;6706281;26;20352;-57
2024/04/19 01:13:43;;;;;;;7.07;5.77;;;;;;;2.71;100.00;97640.41;6713251;26;20246;-57
2024/04/19 01:16:45;;;;;;;7.10;5.63;;;;;;;2.72;100.00;97632.34;6706623;26;20787;-58
2024/04/19 01:19:48;;;;;;;6.87;5.80;;;;;;;2.72;100.00;97647.34;6707040;26;20338;-56
2024/04/19 01:23:09;;;;;;;6.10;5.50;;;;;;;2.84;100.00;97641.31;6709234;26;20239;-57
2024/04/19 01:26:11;;;;;;;6.17;5.57;;;;;;;2.79;100.00;97635.81;6706920;26;20251;-56
2024/04/19 01:29:14;;;;;;;6.03;5.43;;;;;;;2.82;100.00;97637.28;6708318;26;20355;-57
2024/04/19 01:32:16;;;;;;;5.97;5.37;;;;;;;2.72;100.00;97642.88;6725369;26;20282;-57
2024/04/19 01:35:19;;;;;;;5.87;5.27;;;;;;;2.71;100.00;97638.63;6714474;26;20783;-57
2024/04/19 01:38:21;;;;;;;6.53;5.50;;;;;;;2.75;100.00;97645.09;6707675;26;20233;-58
2024/04/19 01:41:24;;;;;;;6.33;5.30;;;;;;;2.71;100.00;97649.16;6716234;26;20338;-55
2024/04/19 01:44:27;;;;;;;4.87;4.47;;;;;;;2.68;100.00;97640.81;6728965;26;20243;-57
2024/04/19 01:47:29;;;;;;;5.33;4.83;;;;;;;2.67;100.00;97644.47;6717034;26;20751;-58
2024/04/19 01:50:32;;;;;;;6.67;5.20;;;;;;;2.74;100.00;97640.84;6709407;26;20238;-58
2024/04/19 01:53:38;;;;;;;5.10;4.53;;;;;;;2.74;100.00;97642.69;6705912;26;20344;-56
2024/04/19 01:56:40;;;;;;;5.07;4.57;;;;;;;2.68;100.00;97646.91;6719677;26;20284;-58
2024/04/19 01:59:43;;;;;;;5.70;4.60;;;;;;;2.73;100.00;97643.69;6718502;26;20291;-58
2024/04/19 02:02:45;;;;;;;4.93;4.43;;;;;;;2.73;100.00;97643.69;6712836;26;21150;-55
2024/04/19 02:05:48;;;;;;;5.60;4.40;;;;;;;2.83;100.00;97636.25;6704533;26;20240;-57
2024/04/19 02:08:50;;;;;;;5.60;4.50;;;;;;;2.80;100.00;97637.44;6722847;26;20251;-58
2024/04/19 02:11:52;;;;;;;4.40;4.00;;;;;;;2.86;100.00;97630.63;6719154;26;20286;-57
2024/04/19 02:14:55;;;;;;;4.33;3.93;;;;;;;2.74;100.00;97634.78;6712589;26;20287;-58
2024/04/19 02:17:57;;;;;;;4.00;3.70;;;;;;;2.80;100.00;97634.00;6716121;26;20240;-56
2024/04/19 02:21:00;;;;;;;6.47;4.30;;;;;;;2.67;100.00;97631.31;6726480;26;20287;-58
2024/04/19 02:24:06;;;;;;;4.10;3.70;;;;;;;2.74;100.00;97638.22;6703177;26;20807;-57
2024/04/19 02:30:52;;;;;;;4.27;3.87;;;;;;;2.62;100.00;97626.63;6701211;26;20761;-57
2024/04/19 02:33:53;;;;;;;4.20;3.80;;;;;;;2.82;100.00;97627.56;6706666;26;20274;-57
2024/04/19 02:36:56;;;;;;;3.70;3.40;;;;;;;2.75;100.00;97624.06;6706039;26;20225;-56
2024/04/19 02:39:59;;;;;;;3.93;3.57;;;;;;;2.89;100.00;97635.47;6707915;26;20238;-56
2024/04/19 02:43:01;;;;;;;4.10;3.70;;;;;;;2.85;100.00;97626.34;6726226;26;20240;-56
2024/04/19 02:46:05;;;;;;;3.97;3.50;;;;;;;2.78;100.00;97617.63;6716965;26;20238;-55
2024/04/19 02:49:08;;;;;;;5.73;3.80;;;;;;;2.78;100.00;97621.06;6730360;26;20289;-55
2024/04/19 02:52:11;;;;;;;4.40;4.00;;;;;;;2.78;100.00;97615.78;6704140;26;20237;-53
2024/04/19 02:55:13;;;;;;;4.60;4.10;;;;;;;2.70;100.00;97618.56;6712220;26;20243;-56
2024/04/19 02:58:17;;;;;;;5.50;4.23;;;;;;;2.67;100.00;97618.16;6684314;26;20283;-57
2024/04/19 03:01:19;;;;;;;7.50;4.87;;;;;;;2.73;100.00;97612.13;6705741;26;20240;-56
2024/04/19 03:04:22;;;;;;;4.93;4.43;;;;;;;2.74;100.00;97609.28;6724369;26;20237;-56
2024/04/19 03:07:25;;;;;;;4.93;4.43;;;;;;;2.67;100.00;97603.19;6709874;26;20233;-56
2024/04/19 03:10:27;;;;;;;6.13;5.53;;;;;;;2.74;100.00;97600.59;6705855;26;20284;-55
2024/04/19 03:13:30;;;;;;;6.60;5.30;;;;;;;2.62;100.00;97589.81;6711967;26;20253;-57
2024/04/19 03:16:32;;;;;;;6.17;5.57;;;;;;;2.66;100.00;97595.47;6711348;26;20233;-54
2024/04/19 03:19:35;;;;;;;7.90;5.93;;;;;;;2.71;100.00;97585.19;6709772;26;20283;-55
2024/04/19 03:22:37;;;;;;;7.30;6.43;;;;;;;2.65;100.00;97573.63;6706663;26;20293;-53
2024/04/19 03:25:40;;;;;;;6.47;5.87;;;;;;;2.67;100.00;97589.25;6695435;26;20311;-55
2024/04/19 03:28:42;;;;;;;6.53;5.90;;;;;;;2.58;100.00;97588.56;6711073;26;20576;-56
2024/04/19 03:31:45;;;;;;;7.90;6.83;;;;;;;2.74;100.00;97583.00;6717528;26;20241;-56
2024/04/19 03:34:47;;;;;;;8.20;6.60;;;;;;;2.71;100.00;97583.41;6712608;26;20282;-57
2024/04/19 03:37:50;;;;;;;9.97;8.13;;;;;;;2.68;100.00;97581.13;6741356;26;20235;-56
2024/04/19 03:40:56;;;;;;;9.83;8.17;;;;;;;2.69;100.00;97576.69;6707651;26;20283;-52
2024/04/19 03:47:23;;;;;;;11.50;9.03;;;;;;;2.87;100.00;97566.47;6708445;26;20251;-57
2024/04/19 03:50:26;;;;;;;13.30;9.67;;;;;;;2.80;100.00;97565.63;6731547;26;20294;-57
2024/04/19 03:53:29;;;;;;;12.17;9.67;;;;;;;2.72;100.00;97571.06;6724885;26;20238;-57
2024/04/19 03:56:31;;;;;;;12.97;10.83;;;;;;;2.94;100.00;97569.13;6713098;26;20239;-56
2024/04/19 03:59:34;;;;;;;13.03;10.50;;;;;;;2.91;100.00;97575.59;6704324;26;20308;-55
2024/04/19 04:02:52;;;;;;;15.20;11.20;;;;;;;3.06;100.00;97564.94;6704339;26;20704;-56
2024/04/19 04:05:55;;;;;;;13.70;10.63;;;;;;;3.06;100.00;97567.56;6668796;26;20241;-56
2024/04/19 04:08:57;;;;;;;14.03;11.47;;;;;;;3.00;100.00;97571.78;6708386;26;20289;-57
2024/04/19 04:12:00;;;;;;;14.07;10.70;;;;;;;3.02;100.00;97567.16;6707954;26;20290;-58
2024/04/19 04:15:04;;;;;;;13.90;10.00;;;;;;;2.94;100.00;97545.44;6705405;26;20294;-56
2024/04/19 04:18:06;;;;;;;11.90;10.03;;;;;;;3.13;100.00;97562.31;6698769;26;20728;-57
2024/04/19 04:21:09;;;;;;;13.33;11.17;;;;;;;3.14;100.00;97564.75;6710017;26;20733;-56
2024/04/19 04:24:12;;;;;;;12.10;10.43;;;;;;;3.07;100.00;97566.56;6711648;26;20285;-56
2024/04/19 04:27:14;;;;;;;12.97;10.40;;;;;;;3.10;100.00;97564.34;6707278;26;20238;-56
2024/04/19 04:30:17;;;;;;;12.90;10.27;;;;;;;3.12;100.00;97574.69;6705357;26;20232;-55
2024/04/19 04:33:20;;;;;;;12.33;10.17;;;;;;;3.13;100.00;97578.13;6717594;26;20898;-55
2024/04/19 04:36:22;;;;;;;11.57;10.37;;;;;;;3.14;100.00;97574.47;6719468;26;20246;-56
2024/04/19 04:39:25;;;;;;;12.97;10.57;;;;;;;3.14;100.00;97567.38;6711394;26;20235;-56
2024/04/19 04:42:27;;;;;;;11.73;10.30;;;;;;;3.21;100.00;97573.50;6711600;26;20286;-54
2024/04/19 04:45:30;;;;;;;13.23;9.30;;;;;;;3.15;100.00;97569.00;6732055;26;20286;-57
2024/04/19 04:48:33;;;;;;;14.27;11.07;;;;;;;3.08;100.00;97565.53;6720671;26;20240;-57
2024/04/19 04:51:36;;;;;;;12.27;9.97;;;;;;;3.09;100.00;97569.78;6721497;26;20229;-57
2024/04/19 04:54:39;;;;;;;13.70;10.47;;;;;;;3.23;100.00;97560.13;6703348;26;20776;-56
2024/04/19 04:57:41;;;;;;;10.73;9.40;;;;;;;3.30;100.00;97567.06;6705750;26;20243;-57
2024/04/19 05:00:44;;;;;;;11.97;9.57;;;;;;;3.42;100.00;97572.53;6727029;26;20256;-57
2024/04/19 05:03:47;;;;;;;12.57;9.90;;;;;;;3.60;100.00;97569.34;6711150;26;20294;-56
2024/04/19 05:06:52;;;;;;;12.90;9.67;;;;;;;3.62;100.00;97562.03;6705111;26;20944;-58
2024/04/19 05:09:55;;;;;;;9.37;8.27;;;;;;;3.55;100.00;97566.50;6737817;26;20681;-57
2024/04/19 05:12:58;;;;;;;11.23;8.77;;;;;;;3.51;100.00;97554.75;6702837;26;20241;-56
2024/04/19 05:16:02;;;;;;;12.07;8.93;;;;;;;3.49;100.00;97554.09;6711402;26;20918;-55
2024/04/19 05:19:04;;;;;;;16.30;9.83;;;;;;;3.41;100.00;97549.84;6708230;26;20592;-54
2024/04/19 05:22:07;;;;;;;10.53;9.13;;;;;;;3.44;100.00;97546.00;6701952;26;20325;-57
2024/04/19 05:25:09;;;;;;;11.20;9.17;;;;;;;3.58;100.00;97569.53;6702492;26;20237;-56
2024/04/19 05:28:12;;;;;;;10.50;8.90;;;;;;;3.49;100.00;97536.47;6702885;26;20236;-56
2024/04/19 05:31:14;;;;;;;10.37;9.07;;;;;;;3.70;100.00;97551.31;6702394;26;20798;-61
2024/04/19 05:34:17;;;;;;;10.53;9.03;;;;;;;3.92;100.00;97553.75;6707690;26;20279;-57
2024/04/19 05:37:20;;;;;;;11.03;9.30;;;;;;;3.92;100.00;97557.22;6682206;26;20237;-55
2024/04/19 05:40:23;;;;;;;11.30;9.70;;;;;;;4.10;99.81;97549.50;6714166;26;20271;-57
2024/04/19 05:43:26;;;;;;;10.53;8.90;;;;;;;4.23;98.89;97559.22;6710863;26;20233;-55
2024/04/19 05:46:28;;;;;;;9.87;8.73;;;;;;;4.26;100.00;97556.19;6713663;26;20288;-55
2024/04/19 05:49:32;;;;;;;11.77;9.50;;;;;;;4.42;94.68;97538.31;6709544;26;20236;-56
2024/04/19 05:52:34;;;;;;;10.03;8.67;;;;;;;4.53;100.00;97548.22;6700556;26;20269;-48
2024/04/19 05:55:37;;;;;;;10.57;8.43;;;;;;;4.41;98.59;97534.88;6702065;26;20241;-46
2024/04/19 05:58:39;;;;;;;9.73;8.60;;;;;;;4.50;95.66;97541.53;6701674;26;20249;-47
2024/04/19 06:01:44;;;;;;;10.43;8.87;;;;;;;4.59;94.69;97542.16;6681993;26;20281;-45
2024/04/19 06:04:47;;;;;;;11.77;8.20;;;;;;;4.68;95.87;97533.00;6701385;26;20896;-48
2024/04/19 06:07:50;;;;;;;8.23;7.00;;;;;;;4.66;96.60;97537.66;6720046;26;20786;-45
2024/04/19 06:10:52;;;;;;;8.80;7.47;;;;;;;4.71;97.06;97523.84;6705979;26;20245;-48
2024/04/19 06:13:55;;;;;;;8.53;7.53;;;;;;;4.88;92.39;97528.44;6743460;26;20237;-46
2024/04/19 06:16:57;;;;;;;7.40;6.63;;;;;;;4.93;92.80;97522.53;6720622;26;20240;-44
2024/04/19 06:20:00;;;;;;;8.53;6.97;;;;;;;5.10;88.70;97531.59;6720461;26;20238;-45
2024/04/19 06:23:04;;;;;;;7.80;6.57;;;;;;;5.36;88.35;97535.13;6714728;26;20277;-44
2024/04/19 06:26:07;;;;;;;8.23;6.93;;;;;;;5.21;91.11;97513.47;6723445;26;20946;-46
2024/04/19 06:29:09;;;;;;;7.47;6.77;;;;;;;5.38;90.96;97531.25;6705880;26;20246;-46
2024/04/19 06:32:12;;;;;;;8.10;6.73;;;;;;;5.52;88.79;97531.19;6681443;26;20613;-43
2024/04/19 06:35:18;;;;;;;8.03;6.67;;;;;;;5.60;89.58;97536.19;6713295;26;20237;-44
2024/04/19 06:38:20;;;;;;;6.63;5.50;;;;;;;5.53;91.79;97522.22;6702490;26;20327;-45
2024/04/19 06:41:23;;;;;;;6.47;5.80;;;;;;;5.68;87.87;97533.31;6711996;26;20236;-44
2024/04/19 06:44:26;;;;;;;8.37;6.17;;;;;;;5.76;87.62;97537.50;6717479;26;20263;-46
2024/04/19 06:47:28;;;;;;;7.20;5.70;;;;;;;5.81;81.85;97530.56;6717837;26;20233;-44
2024/04/19 06:50:31;;;;;;;5.27;4.60;;;;;;;5.95;83.48;97545.31;6713362;26;20577;-47
2024/04/19 06:53:33;;;;;;;4.90;4.40;;;;;;;5.92;81.01;97540.47;6645727;26;20263;-46
2024/04/19 06:56:36;;;;;;;5.63;5.07;;;;;;;5.90;78.76;97518.69;6712259;26;20734;-45
2024/04/19 06:59:41;;;;;;;5.40;4.80;;;;;;;6.07;80.36;97526.13;6714464;26;20251;-46
2024/04/19 07:02:48;;;;;;;6.87;4.47;;;;;;;6.20;77.62;97521.50;6710960;26;20347;-45
2024/04/19 07:05:50;;;;;;;4.73;4.33;;;;;;;6.13;80.53;97523.41;6704280;26;20747;-45
2024/04/19 07:08:53;;;;;;;5.10;4.33;;;;;;;6.17;84.57;97514.03;6652657;26;20862;-44
2024/04/19 07:11:55;;;;;;;5.50;4.30;;;;;;;6.26;81.71;97511.91;6726491;26;20748;-48
2024/04/19 07:14:59;;;;;;;6.20;4.97;;;;;;;6.51;74.67;97511.88;6630083;26;20251;-43
2024/04/19 07:18:01;;;;;;;4.77;4.27;;;;;;;6.70;72.90;97504.75;6702804;26;20240;-43
2024/04/19 07:21:04;;;;;;;4.97;4.00;;;;;;;6.68;77.54;97498.84;6703723;26;20303;-47
2024/04/19 07:24:07;;;;;;;6.30;4.70;;;;;;;6.76;75.68;97495.91;6723149;26;20236;-45
2024/04/19 07:27:09;;;;;;;5.83;4.17;;;;;;;7.02;72.45;97483.38;6681999;26;20269;-45
2024/04/19 07:30:12;;;;;;;4.83;4.33;;;;;;;7.08;69.25;97485.13;6705469;26;20247;-44
2024/04/19 07:33:15;;;;;;;4.40;4.00;;;;;;;7.24;67.67;97484.47;6703196;26;20262;-46
2024/04/19 07:36:17;;;;;;;4.17;3.73;;;;;;;7.27;73.10;97483.25;6703605;26;20648;-45
2024/04/19 07:39:19;;;;;;;3.80;3.33;;;;;;;7.40;68.17;97478.56;6705841;26;20865;-48
2024/04/19 07:42:22;;;;;;;4.43;3.87;;;;;;;7.38;75.29;97480.63;6678172;26;20283;-47
2024/04/19 07:45:24;;;;;;;4.00;3.53;;;;;;;7.55;73.84;97502.00;6711885;26;20298;-45
2024/04/19 07:48:28;;;;;;;3.30;3.00;;;;;;;7.43;68.71;97483.41;6723252;26;20244;-44
2024/04/19 07:51:31;;;;;;;3.53;2.97;;;;;;;7.46;64.85;97472.34;6694887;26;20333;-45
2024/04/19 07:54:34;;;;;;;4.10;3.10;;;;;;;7.63;65.14;97461.88;6715226;26;20637;-45
2024/04/19 07:57:36;;;;;;;3.33;2.63;;;;;;;7.56;74.34;97460.38;6720933;26;20608;-46
2024/04/19 08:00:38;;;;;;;4.93;2.93;;;;;;;7.66;67.44;97476.53;6730463;26;20279;-45
2024/04/19 08:03:41;;;;;;;3.07;2.60;;;;;;;7.66;66.21;97450.03;6713788;26;20232;-45
2024/04/19 08:06:44;;;;;;;2.53;2.33;;;;;;;7.70;65.16;97437.94;6719957;26;20651;-45
2024/04/19 08:09:46;;;;;;;2.60;2.40;;;;;;;7.81;64.17;97445.09;6700541;26;20248;-44
2024/04/19 08:12:49;;;;;;;3.97;2.30;;;;;;;8.07;65.29;97437.72;6715745;26;20289;-45
2024/04/19 08:15:52;;;;;;;3.67;2.40;;;;;;;8.10;64.85;97440.72;6691454;26;20243;-44
2024/04/19 08:18:56;;;;;;;2.20;1.97;;;;;;;8.41;61.48;97452.81;6692241;26;20240;-44
2024/04/19 08:21:59;;;;;;;2.03;1.83;;;;;;;8.41;68.41;97436.09;6705733;26;20249;-44
2024/04/19 08:25:02;;;;;;;2.23;1.90;;;;;;;8.56;66.62;97449.69;6702428;26;20236;-45
2024/04/19 08:28:04;;;;;;;1.60;1.50;;;;;;;8.76;68.58;97436.00;6691418;26;20241;-45
2024/04/19 08:31:07;;;;;;;2.97;2.43;;;;;;;8.87;60.91;97435.19;6687685;26;20842;-46
2024/04/19 08:34:09;;;;;;;2.90;1.83;;;;;;;8.70;62.93;97440.41;6657534;26;20637;-45
2024/04/19 08:37:12;;;;;;;2.40;2.20;;;;;;;8.86;67.21;97441.50;6708966;26;20245;-44
2024/04/19 08:40:14;;;;;;;2.93;2.07;;;;;;;9.01;66.90;97435.69;6732451;26;20344;-46
2024/04/19 08:43:18;;;;;;;2.47;1.60;;;;;;;9.22;67.64;97439.53;6680594;26;20350;-48
2024/04/19 08:46:21;;;;;;;3.10;1.90;;;;;;;9.08;59.68;97439.00;6752335;26;20305;-44
2024/04/19 08:49:24;;;;;;;3.43;2.00;;;;;;;8.82;59.90;97432.41;6689911;26;20308;-45
2024/04/19 08:52:27;;;;;;;5.00;1.70;;;;;;;8.72;64.05;97409.13;6679733;26;20236;-46
2024/04/19 08:55:51;;;;;;;2.37;1.80;;;;;;;8.99;59.28;97435.13;6702354;26;20227;-44
2024/04/19 08:58:55;;;;;;;1.40;1.30;;;;;;;8.78;66.20;97421.47;6700823;26;20237;-45
2024/04/19 09:01:57;;;;;;;1.90;1.53;;;;;;;8.58;65.47;97430.88;6705489;26;20292;-43
2024/04/19 09:05:01;;;;;;;3.10;2.17;;;;;;;8.51;68.05;97447.72;6707214;26;20320;-45
2024/04/19 09:08:05;;;;;;;2.73;1.90;;;;;;;8.57;66.52;97440.69;6703293;26;20248;-44
2024/04/19 09:11:12;;;;;;;2.53;2.33;;;;;;;8.24;66.00;97414.75;6676326;26;20238;-46
2024/04/19 09:14:15;;;;;;;3.07;2.43;;;;;;;8.13;69.23;97432.31;6673084;26;20330;-45
2024/04/19 09:17:18;;;;;;;3.13;2.67;;;;;;;8.01;68.30;97416.38;6671110;26;20244;-45
2024/04/19 09:20:22;;;;;;;4.13;3.17;;;;;;;8.03;68.20;97402.91;6672030;26;20279;-44
2024/04/19 09:23:25;;;;;;;4.23;3.37;;;;;;;8.02;68.76;97425.13;6672198;26;20229;-46
2024/04/19 09:26:29;;;;;;;3.20;2.90;;;;;;;8.08;70.18;97410.97;6683572;26;20240;-47
2024/04/19 09:29:31;;;;;;;4.57;3.30;;;;;;;8.22;71.05;97384.97;6711405;26;20689;-45
2024/04/19 09:32:34;;;;;;;2.97;2.73;;;;;;;8.43;66.47;97391.56;6683584;26;20306;-49
2024/04/19 09:35:38;;;;;;;2.30;2.10;;;;;;;8.55;67.06;97410.09;6682878;26;20808;-45
2024/04/19 09:38:40;;;;;;;2.60;2.40;;;;;;;8.64;62.33;97398.06;6679340;26;20241;-46
2024/04/19 09:41:47;;;;;;;2.43;2.23;;;;;;;8.82;70.53;97386.44;6683993;26;20248;-44
2024/04/19 09:44:52;;;;;;;5.10;2.90;;;;;;;8.91;67.59;97383.16;6678285;26;20244;-49
2024/04/19 09:47:57;;;;;;;2.97;2.47;;;;;;;8.97;63.94;97379.56;6693935;26;20247;-45
2024/04/19 09:51:05;;;;;;;3.10;2.70;;;;;;;8.93;60.51;97388.25;6730651;26;20354;-46
2024/04/19 09:54:11;;;;;;;4.07;2.63;;;;;;;9.16;58.70;97368.72;6678751;26;20625;-45
2024/04/19 09:57:18;;;;;;;2.97;2.20;;;;;;;9.24;57.40;97357.69;6704093;26;20239;-49
2024/04/19 10:00:27;;;;;;;3.87;2.43;;;;;;;9.52;55.91;97381.56;6729303;26;20230;-45
2024/04/19 10:03:32;;;;;;;3.70;2.67;;;;;;;9.27;58.80;97381.16;6682699;26;20237;-45
2024/04/19 10:06:39;;;;;;;3.03;2.50;;;;;;;9.12;58.51;97370.25;6706313;26;20729;-45
2024/04/19 10:09:45;;;;;;;2.90;2.60;;;;;;;9.18;57.80;97367.44;6714552;26;20748;-45
2024/04/19 10:12:48;;;;;;;3.80;2.43;;;;;;;9.34;54.44;97359.72;6729772;26;20308;-44
2024/04/19 10:15:50;;;;;;;4.80;2.50;;;;;;;9.09;55.04;97350.28;6701525;26;20277;-45
2024/04/19 10:18:53;;;;;;;4.27;2.60;;;;;;;8.76;56.54;97354.47;6714508;26;20338;-44
2024/04/19 10:21:55;;;;;;;4.20;2.47;;;;;;;8.68;57.44;97344.25;6680813;26;20249;-45
2024/04/19 10:25:01;;;;;;;3.50;2.50;;;;;;;8.65;61.67;97357.19;6706487;26;20341;-47
2024/04/19 10:28:07;;;;;;;3.83;2.43;;;;;;;8.58;59.36;97341.41;6690825;26;20754;-44
2024/04/19 10:31:09;;;;;;;2.87;2.67;;;;;;;8.64;62.88;97350.28;6680048;26;20338;-45
2024/04/19 10:34:12;;;;;;;3.60;2.60;;;;;;;8.59;61.99;97358.16;6683737;26;20368;-45
2024/04/19 10:37:14;;;;;;;2.50;2.30;;;;;;;8.45;60.66;97347.78;6727663;26;20659;-45
2024/04/19 10:40:19;;;;;;;3.30;3.00;;;;;;;8.36;61.70;97332.44;6687112;26;20252;-47
2024/04/19 10:43:22;;;;;;;2.87;2.40;;;;;;;8.37;59.82;97320.81;6717084;26;20235;-45
2024/04/19 10:46:24;;;;;;;2.73;2.50;;;;;;;8.65;60.08;97318.16;6713329;26;20225;-44
2024/04/19 10:49:27;;;;;;;3.37;2.70;;;;;;;8.88;60.09;97329.72;6688073;26;20279;-45
2024/04/19 10:52:36;;;;;;;2.80;2.20;;;;;;;8.71;60.26;97297.81;6703985;26;20267;-46
2024/04/19 10:55:39;;;;;;;3.27;2.30;;;;;;;8.93;60.48;97321.84;6688546;26;20267;-46
2024/04/19 10:58:41;;;;;;;3.40;2.53;;;;;;;8.78;59.14;97295.81;6715777;26;20240;-45
2024/04/19 11:01:45;;;;;;;2.93;2.50;;;;;;;8.85;63.40;97298.31;6696683;26;20235;-45
2024/04/19 11:04:48;;;;;;;2.60;2.13;;;;;;;8.69;59.40;97302.56;6673006;26;20236;-45
2024/04/19 11:07:51;;;;;;;2.83;2.47;;;;;;;8.74;64.79;97322.03;6733145;26;20313;-45
2024/04/19 11:10:53;;;;;;;3.10;1.90;;;;;;;8.43;63.87;97312.72;6712310;26;20237;-46
2024/04/19 11:13:58;;;;;;;3.97;1.73;;;;;;;8.57;64.93;97329.19;6708776;26;20357;-46
2024/04/19 11:17:03;;;;;;;1.20;1.10;;;;;;;8.14;62.38;97309.22;6668164;26;20308;-46
2024/04/19 11:20:05;;;;;;;1.67;1.00;;;;;;;8.18;64.00;97328.94;6723137;26;20582;-47
2024/04/19 11:23:08;;;;;;;1.20;0.93;;;;;;;8.37;66.27;97324.25;6660722;26;20253;-46
2024/04/19 11:26:15;;;;;;;1.00;0.80;;;;;;;8.10;66.39;97323.97;6713750;26;20287;-45
2024/04/19 11:29:19;;;;;;;1.53;0.90;;;;;;;8.21;66.61;97314.38;6698872;26;20233;-46
2024/04/19 11:32:27;;;;;;;2.20;1.00;;;;;;;7.96;71.73;97306.72;6698573;26;20719;-50
2024/04/19 11:35:29;;;;;;;1.10;1.00;;;;;;;7.97;68.37;97311.78;6688067;26;20240;-45
2024/04/19 11:38:31;;;;;;;1.67;1.17;;;;;;;7.87;70.62;97298.31;6712117;26;20776;-44
2024/04/19 11:41:34;;;;;;;1.27;1.10;;;;;;;7.94;70.46;97304.31;6707826;26;20239;-44
2024/04/19 11:44:40;;;;;;;0.83;0.83;;;;;;;7.97;71.44;97305.66;6722086;26;20290;-45
2024/04/19 11:47:42;;;;;;;0.60;0.60;;;;;;;7.66;67.10;97294.41;6724906;26;20354;-46
2024/04/19 11:50:46;;;;;;;0.90;0.90;;;;;;;7.88;66.04;97304.41;6719563;26;20275;-45
2024/04/19 11:53:49;;;;;;;2.57;1.10;;;;;;;7.46;69.49;97291.34;6667841;26;20253;-44
2024/04/19 11:56:51;;;;;;;1.23;0.80;;;;;;;7.15;70.13;97279.25;6702058;26;20245;-47
2024/04/19 11:59:54;;;;;;;0.77;0.77;;;;;;;7.45;69.98;97285.22;6721549;26;20274;-48
2024/04/19 12:02:56;;;;;;;1.60;1.17;;;;;;;7.52;74.63;97269.19;6707484;26;20254;-45
2024/04/19 12:05:59;;;;;;;6.40;1.63;;;;;;;7.66;73.25;97273.22;6672232;26;20240;-45
2024/04/19 12:09:02;;;;;;;1.47;1.10;;;;;;;7.69;72.81;97256.84;6732809;26;20243;-45
2024/04/19 12:12:05;;;;;;;1.50;1.13;;;;;;;7.50;72.22;97256.19;6675355;26;20685;-44
2024/04/19 12:15:28;;;;;;;1.83;1.40;;;;;;;7.58;73.55;97244.41;6703794;26;20336;-47
2024/04/19 12:18:50;;;;;;;1.87;1.30;;;;;;;7.44;73.81;97235.91;6709395;26;20334;-44
2024/04/19 12:21:53;;;;;;;1.40;1.30;;;;;;;7.36;73.25;97236.25;6693364;26;20237;-46
2024/04/19 12:24:57;;;;;;;3.00;1.67;;;;;;;7.28;72.53;97247.19;6715748;26;20249;-46
2024/04/19 12:27:59;;;;;;;3.03;1.60;;;;;;;7.14;71.61;97230.75;6669814;26;20239;-45
2024/04/19 12:31:03;;;;;;;2.20;1.70;;;;;;;7.33;75.56;97222.66;6705327;26;20291;-45
2024/04/19 12:34:07;;;;;;;1.70;1.60;;;;;;;7.42;69.47;97221.28;6678361;26;20282;-44
2024/04/19 12:37:09;;;;;;;1.43;1.33;;;;;;;7.49;67.66;97220.13;6712235;26;20243;-45
2024/04/19 12:40:12;;;;;;;2.23;1.23;;;;;;;7.65;70.99;97213.28;6671408;26;20242;-46
2024/04/19 12:43:14;;;;;;;1.20;1.10;;;;;;;7.67;68.64;97189.97;6715640;26;20361;-46
2024/04/19 12:46:17;;;;;;;5.70;1.60;;;;;;;7.76;68.30;97201.03;6704321;26;20340;-46
2024/04/19 12:49:21;;;;;;;3.80;1.90;;;;;;;7.88;68.38;97193.03;6677388;26;20249;-45
2024/04/19 12:52:23;;;;;;;2.43;1.40;;;;;;;7.98;66.17;97182.63;6712387;26;20236;-47
2024/04/19 12:55:26;;;;;;;2.07;1.50;;;;;;;7.94;67.42;97168.25;6709883;26;20340;-45
2024/04/19 12:58:31;;;;;;;2.17;1.60;;;;;;;8.22;64.19;97156.78;6671476;26;20253;-46
2024/04/19 13:01:33;;;;;;;1.70;1.60;;;;;;;8.34;64.60;97170.78;6703206;26;20708;-44
2024/04/19 13:04:36;;;;;;;2.60;1.60;;;;;;;8.44;68.28;97162.22;6694990;26;20235;-44
2024/04/19 13:07:40;;;;;;;1.40;1.30;;;;;;;8.35;62.86;97155.69;6699559;26;20369;-45
2024/04/19 13:10:42;;;;;;;2.50;1.23;;;;;;;8.50;62.49;97146.13;6706939;26;20252;-46
2024/04/19 13:13:49;;;;;;;1.47;1.00;;;;;;;8.57;58.75;97135.38;6703081;26;20252;-44
2024/04/19 13:16:52;;;;;;;1.23;0.90;;;;;;;8.57;57.94;97145.16;6727753;26;20228;-44
2024/04/19 13:19:54;;;;;;;2.50;1.00;;;;;;;8.59;58.67;97129.81;6690205;26;20241;-46
2024/04/19 13:22:57;;;;;;;0.97;0.87;;;;;;;8.69;60.03;97125.47;6750311;26;20358;-45
2024/04/19 13:25:59;;;;;;;1.33;1.20;;;;;;;8.95;55.79;97118.66;6694064;26;20291;-44
2024/04/19 13:29:02;;;;;;;2.20;0.90;;;;;;;9.05;58.13;97094.88;6700664;26;20247;-46
2024/04/19 13:32:04;;;;;;;1.50;1.10;;;;;;;9.11;55.49;97057.72;6695239;26;20250;-45
2024/04/19 13:35:06;;;;;;;1.20;1.10;;;;;;;9.43;56.67;97085.25;6716401;26;20232;-46
2024/04/19 13:38:09;;;;;;;1.73;0.97;;;;;;;9.54;56.02;97070.19;6706158;26;20278;-45
2024/04/19 13:41:11;;;;;;;1.20;0.87;;;;;;;9.57;51.39;97061.72;6675843;26;20595;-44
2024/04/19 13:44:14;;;;;;;1.17;1.10;;;;;;;9.50;50.85;97045.16;6676964;26;20603;-45
2024/04/19 13:47:17;;;;;;;1.13;0.80;;;;;;;9.52;51.58;97046.53;6701035;26;20354;-46
2024/04/19 13:50:20;;;;;;;2.57;0.93;;;;;;;9.73;51.35;97036.09;6713823;26;20275;-45
2024/04/19 13:53:22;;;;;;;0.80;0.80;;;;;;;9.86;51.58;97029.56;6705211;26;20249;-45
2024/04/19 13:56:24;;;;;;;0.83;0.80;;;;;;;9.77;54.32;97027.34;6688973;26;20661;-46
2024/04/19 13:59:27;;;;;;;0.70;0.70;;;;;;;9.79;55.13;97024.44;6673436;26;20805;-46
2024/04/19 14:02:29;;;;;;;0.50;0.50;;;;;;;10.04;58.24;97016.66;6700877;26;20287;-49
2024/04/19 14:05:32;;;;;;;1.60;0.50;;;;;;;10.00;54.30;97030.72;6676341;26;20338;-45
2024/04/19 14:08:35;;;;;;;0.90;0.50;;;;;;;9.85;50.97;97006.66;6701705;26;20358;-49
2024/04/19 14:11:39;;;;;;;0.90;0.60;;;;;;;10.06;50.19;97017.22;6704007;26;20243;-45
2024/04/19 14:14:41;;;;;;;0.53;0.47;;;;;;;10.01;52.78;97005.75;6660880;26;20239;-46
2024/04/19 14:17:43;;;;;;;0.60;0.50;;;;;;;9.93;52.07;96998.22;6654072;26;20764;-47
2024/04/19 14:20:49;;;;;;;0.70;0.50;;;;;;;9.98;53.90;96996.38;6659652;26;20288;-48
2024/04/19 14:23:51;;;;;;;1.17;0.63;;;;;;;10.19;53.37;96994.66;6670622;26;20365;-45
2024/04/19 14:26:54;;;;;;;1.53;0.50;;;;;;;9.98;48.92;96996.38;6662104;26;20236;-46
2024/04/19 14:29:56;;;;;;;0.43;0.40;;;;;;;9.96;46.61;96987.88;6665405;26;20252;-44
2024/04/19 14:32:59;;;;;;;0.57;0.30;;;;;;;9.78;47.35;96997.03;6689125;26;20244;-45